Latest Weather Observations for Bickley

IDW60801

Issued at 12:31 pm WST Thursday 5 May 2016 (issued every 30 minutes, with the page automatically refreshed every 10 minutes)

About weather observations | Map of weather stations | Latest weather observations for WA | Other Formats
Station Details ID: 009240 Name: BICKLEY Lat: -32.01 Lon: 116.14 Height: 384.0 m
Data from the previous 72 hours. | See also: Recent months at Bickley
Date/Time
WST
Temp
°C
App
Temp
°C
Dew
Point
Rel
Hum
%
Delta-T
°C
Wind Press
QNH
hPa
Press
MSL
hPa
Rain
since 9 am
mm
Dir
 
Spd
km/h
Gust
km/h
Spd
kts
Gust
kts
05/12:30pm 16.3 16.3 12.3 77 2.2 SW 4 6 2 3 - - 0.0
05/12:00pm 16.1 15.1 12.3 78 2.1 WSW 9 15 5 8 - - 0.0
05/11:30am 16.5 15.8 12.1 75 2.5 WSW 7 13 4 7 - - 0.0
05/11:00am 15.8 14.9 12.5 81 1.8 W 9 13 5 7 - - 0.0
05/10:30am 16.2 15.6 12.4 78 2.1 S 7 11 4 6 - - 0.0
05/10:00am 16.3 - - - - S 9 13 5 7 - - 0.0
05/09:30am 16.2 - - - - SSW 7 13 4 7 - - 0.0
05/09:00am 15.3 - - - - SSE 4 7 2 4 - - 0.2
05/08:30am 14.5 - - - - ESE 2 7 1 4 - - 0.2
05/08:00am 13.8 - - - - SSE 6 11 3 6 - - 0.2
05/07:30am 12.2 - - - - S 7 9 4 5 - - 0.2
05/07:00am 12.8 - - - - SSW 9 13 5 7 - - 0.2
05/06:30am 12.5 - - - - S 9 13 5 7 - - 0.2
05/06:00am 12.1 - - - - SSW 11 15 6 8 - - 0.2
05/05:30am 11.7 - - - - SW 11 15 6 8 - - 0.2
05/05:00am 12.0 - - - - SW 9 13 5 7 - - 0.2
05/04:30am 12.4 - - - - SW 11 15 6 8 - - 0.2
05/04:00am 12.9 - - - - SW 11 17 6 9 - - 0.2
05/03:30am 12.1 - - - - WSW 11 15 6 8 - - 0.2
05/03:00am 12.5 - - - - WSW 15 20 8 11 - - 0.2
05/02:30am 12.5 - - - - WSW 13 17 7 9 - - 0.2
05/02:00am 12.5 - - - - WSW 11 15 6 8 - - 0.2
05/01:30am 13.3 - - - - WSW 11 17 6 9 - - 0.2
05/01:00am 13.2 - - - - SW 11 15 6 8 - - 0.2
05/12:30am 12.8 - - - - WSW 11 13 6 7 - - 0.2
05/12:00am 13.6 - - - - SW 11 17 6 9 - - 0.2
 
Date/Time
WST
Temp
°C
App
Temp
°C
Dew
Point
Rel
Hum
%
Delta-T
°C
Wind Press
QNH
hPa
Press
MSL
hPa
Rain
since 9 am
mm
Dir
 
Spd
km/h
Gust
km/h
Spd
kts
Gust
kts
04/11:30pm 13.7 - - - - SW 13 26 7 14 - - 0.2
04/11:00pm 14.0 - - - - SW 9 17 5 9 - - 0.2
04/10:30pm 14.3 - - - - WSW 13 22 7 12 - - 0.2
04/10:00pm 14.2 - - - - W 13 22 7 12 - - 0.0
04/09:30pm 14.0 - - - - WSW 11 15 6 8 - - 0.0
04/09:00pm 14.0 - - - - WSW 13 20 7 11 - - 0.0
04/08:30pm 14.5 - - - - WSW 11 17 6 9 - - 0.0
04/08:00pm 14.6 - - - - WSW 13 20 7 11 - - 0.0
04/07:30pm 15.0 13.6 12.1 83 1.6 WSW 11 17 6 9 - - 0.0
04/07:00pm 14.8 13.2 11.6 81 1.8 W 11 15 6 8 - - 0.0
04/06:30pm 14.8 13.5 11.4 80 1.9 WSW 9 15 5 8 - - 0.0
04/06:00pm 15.1 12.7 11.5 79 2.0 WSW 15 22 8 12 - - 0.0
04/05:30pm 15.8 13.4 11.4 75 2.4 WSW 15 26 8 14 - - 0.0
04/05:00pm 16.6 14.7 11.7 73 2.7 WSW 13 20 7 11 - - 0.0
04/04:30pm 17.6 15.6 11.4 67 3.4 WSW 13 24 7 13 - - 0.0
04/04:00pm 18.2 15.9 11.7 66 3.6 WSW 15 26 8 14 - - 0.0
04/03:30pm 18.6 16.7 11.7 64 3.9 WSW 13 22 7 12 - - 0.0
04/03:00pm 18.8 16.8 11.6 63 4.0 WSW 13 22 7 12 - - 0.0
04/02:30pm 18.5 16.6 11.8 65 3.8 WSW 13 22 7 12 - - 0.0
04/02:00pm 18.8 16.5 11.6 63 4.0 SW 15 24 8 13 - - 0.0
04/01:30pm 18.9 16.2 11.7 63 4.0 W 17 26 9 14 - - 0.0
04/01:00pm 18.3 16.4 11.8 66 3.6 WSW 13 24 7 13 - - 0.0
04/12:30pm 18.0 16.4 11.6 66 3.6 W 11 17 6 9 - - 0.0
04/12:00pm 18.1 16.5 11.7 66 3.6 W 11 20 6 11 - - 0.0
04/11:30am 17.4 15.4 11.4 68 3.3 W 13 22 7 12 - - 0.0
04/11:00am 16.3 14.5 12.1 76 2.3 WSW 13 22 7 12 - - 0.0
04/10:30am 16.2 15.5 13.3 83 1.7 SW 9 15 5 8 - - 0.0
04/10:00am 15.8 - - - - WSW 9 13 5 7 - - 0.0
04/09:30am 15.0 - - - - WSW 7 13 4 7 - - 0.0
04/09:00am 14.2 - - - - WSW 6 9 3 5 - - 0.2
04/08:30am 13.4 - - - - SW 4 7 2 4 - - 0.2
04/08:00am 12.7 - - - - SW 7 11 4 6 - - 0.2
04/07:30am 12.4 - - - - SW 9 13 5 7 - - 0.2
04/07:00am 12.1 - - - - SSW 7 11 4 6 - - 0.2
04/06:30am 11.7 - - - - SSW 9 15 5 8 - - 0.2
04/06:00am 10.4 - - - - SSW 7 11 4 6 - - 0.2
04/05:30am 10.2 - - - - ENE 7 9 4 5 - - 0.2
04/05:00am 10.0 - - - - ESE 6 7 3 4 - - 0.2
04/04:30am 10.2 - - - - E 7 9 4 5 - - 0.2
04/04:00am 10.6 - - - - S 7 9 4 5 - - 0.2
04/03:30am 11.6 - - - - S 6 9 3 5 - - 0.2
04/03:00am 12.0 - - - - SSW 9 11 5 6 - - 0.2
04/02:30am 11.6 - - - - SE 7 9 4 5 - - 0.2
04/02:00am 12.2 - - - - SE 6 9 3 5 - - 0.2
04/01:30am 12.4 - - - - SSE 9 15 5 8 - - 0.0
04/01:00am 11.9 - - - - SSE 9 13 5 7 - - 0.0
04/12:30am 11.7 - - - - S 9 13 5 7 - - 0.0
04/12:00am 12.0 - - - - S 11 15 6 8 - - 0.0
 
Date/Time
WST
Temp
°C
App
Temp
°C
Dew
Point
Rel
Hum
%
Delta-T
°C
Wind Press
QNH
hPa
Press
MSL
hPa
Rain
since 9 am
mm
Dir
 
Spd
km/h
Gust
km/h
Spd
kts
Gust
kts
03/11:30pm 11.9 - - - - S 11 15 6 8 - - 0.0
03/11:00pm 12.1 - - - - SSW 11 13 6 7 - - 0.0
03/10:30pm 12.3 - - - - SSW 11 13 6 7 - - 0.0
03/10:00pm 12.0 - - - - SSW 11 13 6 7 - - 0.0
03/09:30pm 12.4 - - - - SSW 9 11 5 6 - - 0.0
03/09:00pm 12.7 - - - - SSW 9 13 5 7 - - 0.0
03/08:30pm 12.9 - - - - SSW 9 11 5 6 - - 0.0
03/08:00pm 13.4 - - - - SSW 9 13 5 7 - - 0.0
03/07:30pm 13.7 12.5 10.3 80 1.8 SW 7 11 4 6 - - 0.0
03/07:00pm 14.7 13.6 10.7 77 2.2 SW 7 9 4 5 - - 0.0
03/06:30pm 15.4 14.4 11.0 75 2.4 SW 7 9 4 5 - - 0.0
03/06:00pm 15.7 16.2 11.5 76 2.3 CALM 0 0 0 0 - - 0.0
03/05:30pm 16.0 16.5 11.6 75 2.4 CALM 0 0 0 0 - - 0.0
03/05:00pm 16.1 16.6 11.5 74 2.5 CALM 0 0 0 0 - - 0.0
03/04:30pm 16.6 16.9 10.9 69 3.1 CALM 0 0 0 0 - - 0.0
03/04:00pm 16.7 15.7 10.3 66 3.5 SSE 6 11 3 6 - - 0.0
03/03:30pm 16.9 16.8 10.7 67 3.4 SW 2 9 1 5 - - 0.0
03/03:00pm 16.6 16.5 10.9 69 3.1 ESE 2 7 1 4 - - 0.0
03/02:30pm 16.8 16.4 11.1 69 3.1 WSW 4 9 2 5 - - 0.0
03/02:00pm 16.9 16.1 11.2 69 3.1 S 6 7 3 4 - - 0.0
03/01:30pm 16.7 15.5 11.6 72 2.8 SW 9 15 5 8 - - 0.0
03/01:00pm 16.3 14.9 11.0 71 2.9 S 9 13 5 7 - - 0.0
03/12:30pm 16.1 14.9 11.5 74 2.5 S 9 13 5 7 - - 0.0
03/12:00pm 16.3 15.1 11.5 73 2.6 SW 9 15 5 8 - - 0.0
03/11:30am 16.0 15.3 12.0 77 2.2 S 7 15 4 8 - - 0.0
03/11:00am 15.6 - - - - S 11 20 6 11 - - 0.0
03/10:30am 15.0 - - - - S 9 15 5 8 - - 0.0
03/10:00am 14.6 - - - - SSE 9 20 5 11 - - 0.0
03/09:30am 13.8 - - - - SSE 11 24 6 13 - - 0.0
03/09:00am 13.4 - - - - S 11 24 6 13 - - 0.4
03/08:30am 12.9 - - - - S 13 24 7 13 - - 0.4
03/08:00am 12.1 - - - - S 15 22 8 12 - - 0.4
03/07:30am 11.6 - - - - SSE 15 26 8 14 - - 0.4
03/07:00am 11.4 - - - - SSE 13 20 7 11 - - 0.4
03/06:30am 11.3 - - - - S 13 26 7 14 - - 0.4
03/06:00am 10.9 - - - - S 13 17 7 9 - - 0.4
03/05:30am 10.9 - - - - S 13 20 7 11 - - 0.4
03/05:00am 11.2 - - - - SSE 13 20 7 11 - - 0.4
03/04:30am 11.1 - - - - SSE 17 22 9 12 - - 0.4
03/04:00am 10.9 - - - - SSE 13 20 7 11 - - 0.2
03/03:30am 11.4 - - - - SSE 13 20 7 11 - - 0.2
03/03:00am 11.8 - - - - S 17 26 9 14 - - 0.2
03/02:30am 11.7 - - - - S 15 24 8 13 - - 0.2
03/02:00am 11.8 - - - - S 15 22 8 12 - - 0.2
03/01:30am 12.1 - - - - S 17 24 9 13 - - 0.2
03/01:00am 12.5 - - - - S 13 20 7 11 - - 0.2
03/12:30am 12.8 - - - - SSW 15 20 8 11 - - 0.2
03/12:00am 13.0 - - - - SSW 15 20 8 11 - - 0.2
 
Date/Time
WST
Temp
°C
App
Temp
°C
Dew
Point
Rel
Hum
%
Delta-T
°C
Wind Press
QNH
hPa
Press
MSL
hPa
Rain
since 9 am
mm
Dir
 
Spd
km/h
Gust
km/h
Spd
kts
Gust
kts
02/11:30pm 13.2 - - - - SSW 13 17 7 9 - - 0.2
02/11:00pm 13.2 - - - - SSW 13 20 7 11 - - 0.0
02/10:30pm 13.3 - - - - SSW 11 15 6 8 - - 0.0
02/10:00pm 13.3 - - - - SW 11 13 6 7 - - 0.0
02/09:30pm 13.3 - - - - SW 9 13 5 7 - - 0.0
02/09:00pm 13.8 - - - - SW 9 11 5 6 - - 0.0
02/08:30pm 14.7 - - - - SSW 9 13 5 7 - - 0.0
02/08:00pm 14.9 - - - - SW 9 15 5 8 - - 0.0
02/07:30pm 14.9 - - - - SW 11 20 6 11 - - 0.0
02/07:00pm 14.5 - - - - SW 11 22 6 12 - - 0.0
02/06:30pm 14.6 - - - - SW 13 22 7 12 - - 0.0
02/06:00pm 15.2 13.3 11.8 80 1.9 WSW 13 20 7 11 - - 0.0
02/05:30pm 15.5 13.0 11.1 75 2.4 WSW 15 26 8 14 - - 0.0
02/05:00pm 16.1 14.4 11.3 73 2.6 WSW 11 20 6 11 - - 0.0
02/04:30pm 16.9 16.0 12.6 76 2.4 WSW 9 15 5 8 - - 0.0
02/04:00pm 16.6 14.8 12.2 75 2.5 W 13 20 7 11 - - 0.0
02/03:30pm 16.7 15.1 12.8 78 2.2 W 13 22 7 12 - - 0.0
02/03:00pm 16.5 15.3 12.8 79 2.1 W 11 22 6 12 - - 0.0
02/02:30pm 16.1 15.0 13.2 83 1.6 W 11 20 6 11 - - 0.0
02/02:00pm 15.7 14.0 12.6 82 1.7 WSW 13 22 7 12 - - 0.0
02/01:30pm 15.7 14.6 13.0 84 1.5 WNW 11 17 6 9 - - 0.0
02/01:00pm 14.5 13.9 12.2 86 1.3 WSW 7 13 4 7 - - 0.0

Other Formats:

Comma delimited format used in spreadsheet applications
http://www.bom.gov.au/fwo/IDW60801/IDW60801.95610.axf

JavaScript Object Notation format (JSON) in row-major order
http://www.bom.gov.au/fwo/IDW60801/IDW60801.95610.json